World of Logs combat log analyzer allows gamers to save, share and analyze their raiding experiences conveniently and thoroughly in the Blizzard MMO World of Warcraft. If you're new here, make sure you check out the tour for a 1 minute introduction. If you have any questions, we're happy to answer them on the forums.

DPS HPS
Odyn
Helya
Guarm
Reports for Odyn - statistics
# Date Time Damage DPS Guild Realm
1 07 Mar 2017 02:00 1703.98M 14141282.9 Stoneblood US-Zul'jin
2 08 Mar 2017 02:29 1233.24M 8247978.5 Snurkfizzle Cartel EU-Ravencrest
3 25 Jan 2017 02:36 1813.32M 11571549.1 We Smoke Fel Weêd EU-Kazzak
4 10 Feb 2017 03:08 1122.31M 5963087.6 mixed EU-Blackrock
5 26 Feb 2017 03:13 643.44M 3323417.6 TeamKnusprig EU-Aegwynn
6 24 Feb 2017 03:13 900.68M 4647071.6 Tal der Wölfe EU-Malfurion
7 09 Jan 2017 03:19 710.16M 3557713.0 prétorien EU-Archimonde
8 09 Jan 2017 03:20 580.36M 2897949.3 Grey Wolves EU-Uldum
9 27 Jan 2017 03:24 1218.38M 5948505.1 Drewslogs US-Sargeras
10 29 Dec 2016 03:43 898.43M 4015939.4 Drewslogs US-Sargeras
11 19 Mar 2017 03:47 771.32M 3392575.2 Glørify EU-Hyjal
12 11 Jan 2017 03:48 1197.43M 5247263.5 Fantasy EU-Азурегос
13 12 Jan 2017 03:48 707.01M 3095282.6 Eclipsatio Lunaris EU-Mal'Ganis
14 22 Jan 2017 03:50 1450.43M 6301607.4 The Fallen US-Dath'Remar
15 19 Feb 2017 03:50 1451.76M 6303086.9 Chakra US-Bladefist
16 01 Feb 2017 03:53 1074.32M 4595719.2 Untitled EU-Sylvanas
17 05 Jan 2017 03:54 410.38M 1750754.4 UnskilleÐ EU-Elune
18 19 Mar 2017 03:54 710.24M 3028916.5 Avengers of the Storm EU-Tyrande
19 18 Feb 2017 03:54 785.97M 3345509.4 Blackened Demise US-Bleeding Hollow
20 18 Feb 2017 03:54 785.97M 3345509.4 Blackened Demise US-Bleeding Hollow
21 01 Mar 2017 03:56 1147.84M 4863025.3 Honor System Refugees US-Elune
22 11 Feb 2017 03:56 1208.89M 5116643.2 Silverblade EU-Frostmane
23 11 Jan 2017 03:57 707.11M 2975771.6 Hangover EU-Argent Dawn
24 16 Mar 2017 03:57 774.77M 3258681.1 Retro Raiders US-Bloodhoof
25 16 Mar 2017 03:58 774.67M 3251429.3 Retro Raiders US-Bloodhoof
26 12 Feb 2017 03:58 1132.83M 4743491.4 The Fallen US-Dath'Remar
27 10 Jan 2017 03:59 1396.70M 5839721.9 Adventuring Academy US-Kel'Thuzad
28 06 Feb 2017 03:59 953.07M 3974029.2 Eau Pastis Olives EU-Garona
29 25 Jan 2017 04:01 1503.96M 6221233.1 Eternal Fíre EU-Alonsus
30 15 Jan 2017 04:02 1258.10M 5181432.7 Воины Вальгаллы EU-Вечная Песня
31 29 Jan 2017 04:03 1264.75M 5203887.1 The Fallen US-Dath'Remar
32 11 Jan 2017 04:05 1142.35M 4651797.7 AllQuestforFun EU-Perenolde
33 13 Feb 2017 04:06 1199.09M 4869674.6 Nanawa EU-Blackrock
34 12 Jan 2017 04:06 1505.65M 6111696.0 Stoneblood US-Zul'jin
35 15 Jan 2017 04:09 1143.87M 4576297.7 Mercenary EU-Anetheron
36 28 Dec 2016 04:10 1274.48M 5095237.4 AllQuestforFun EU-Perenolde
37 22 Jan 2017 04:10 1632.33M 6503664.9 Drewslogs US-Sargeras
38 11 Jan 2017 04:11 966.49M 3845911.4 Minatory EU-Eredar
39 14 Jan 2017 04:11 1140.89M 4536550.7 Death Legion US-Kilrogg
40 15 Jan 2017 04:11 1208.30M 4795280.3 Immortal Guardians EU-Dun Morogh
41 20 Mar 2017 04:13 1036.31M 4088494.0 Anomaly US-Laughing Skull
42 19 Jan 2017 04:13 776.00M 3059535.0 NoName US-Goldrinn
43 07 Mar 2017 04:13 885.20M 3485834.1 parva famila EU-Blackhand
44 16 Jan 2017 04:14 961.05M 3780712.3 Tasty Beverage US-Bleeding Hollow
45 27 Jan 2017 04:16 1070.64M 4173617.3 Annihilation US-Llane
46 13 Feb 2017 04:17 890.16M 3460266.4 Eau Pastis Olives EU-Garona
47 08 Jan 2017 04:17 713.39M 2767389.9 Old Fellows EU-Blackmoore
48 01 Feb 2017 04:17 721.09M 2797184.7 Vampires Dês Hydoor US-Ragnaros
49 10 Jan 2017 04:18 844.13M 3266568.4 The Shattered Union US-Hyjal
50 21 Dec 2016 04:19 1194.71M 4598610.2 Linergy EU-Hyjal
51 24 Feb 2017 04:20 889.57M 3421015.7 Dark Times EU-Aggra
52 16 Jan 2017 04:20 585.25M 2243143.7 Panopticon EU-Ragnaros
53 12 Mar 2017 04:21 652.89M 2498895.9 Mystic Dragons EU-Arygos
54 26 Jan 2017 04:23 1319.60M 4999052.9 Templars of the Rose US-Earthen Ring
55 30 Dec 2016 04:24 831.19M 3137982.3 Silent Agony EU-Kirin Tor
56 02 Feb 2017 04:25 1015.27M 3820515.3 Solidarity EU-Silvermoon
57 10 Jan 2017 04:26 830.35M 3121094.8 Second Class Citizens US-Farstriders
58 12 Jan 2017 04:26 707.69M 2651136.5 Lucid Dream EU-Bronze Dragonflight
59 15 Jan 2017 04:27 1329.43M 4974116.3 Censored US-Sargeras
60 11 Jan 2017 04:27 1257.47M 4703897.2 Mannisch Depressiv EU-Kargath
61 12 Jan 2017 04:27 830.30M 3104505.4 Zug Life US-Draka
62 10 Mar 2017 04:28 1325.95M 4937416.9 Kreuzzug der Ehre EU-Blackhand
63 18 Feb 2017 04:28 840.83M 3127314.8 Immature Kiddies EU-Hellscream
64 12 Jan 2017 04:28 712.11M 2648434.2 MIAG EU-Drak'thul
65 03 Mar 2017 04:29 1026.26M 3812266.9 For The Horde Raiding US-Archimonde
66 29 Dec 2016 04:30 707.79M 2618016.2 Кредо EU-Гордунни
67 17 Feb 2017 04:32 952.39M 3496076.5 Рожденные в С С С Р EU-Ткач Смерти
68 21 Mar 2017 04:32 770.75M 2828732.0 Ewige Stille EU-Zirkel des Cenarius
69 08 Jan 2017 04:33 957.66M 3507212.0 Steakhaus EU-Die Aldor
70 06 Jan 2017 04:33 1268.61M 4635081.1 The Fallen US-Dath'Remar
71 22 Jan 2017 04:33 888.60M 3244742.1 Ragnarok Council EU-Burning Legion
72 27 Jan 2017 04:34 1020.84M 3725010.4 Mystic Dragons EU-Arygos
73 08 Jan 2017 04:34 585.27M 2131136.3 Sloppylock US-Stormrage
74 15 Jan 2017 04:35 706.97M 2567691.8 Consider Phlebas EU-Draenor
75 21 Dec 2016 04:35 1072.86M 3893357.1 Devine EU-Hyjal
76 10 Jan 2017 04:35 950.99M 3450099.3 Severed US-Llane
77 04 Jan 2017 04:36 1198.42M 4340884.7 AllQuestforFun EU-Perenolde
78 04 Jan 2017 04:36 1257.76M 4549448.5 Angels of Light EU-Arthas
79 29 Dec 2016 04:36 1195.62M 4316785.0 Anorya EU-Aman'Thul
80 12 Jan 2017 04:38 1012.60M 3637830.4 Ring of Excellence EU-Durotan
81 11 Jan 2017 04:39 780.68M 2791817.4 Возрождение EU-Азурегос
82 12 Jan 2017 04:42 958.89M 3388933.7 Fateful Encounter US-Area 52
83 29 Jan 2017 04:44 901.80M 3173203.1 New Ðeal EU-Chants éternels
84 21 Dec 2016 04:44 1261.53M 4429332.5 AllQuestforFun EU-Perenolde
85 14 Jan 2017 04:45 1078.16M 3776872.7 Wraiths of the Dark Lady US-Winterhoof
86 04 Jan 2017 04:45 1142.68M 4000353.9 Mannisch Depressiv EU-Kargath
87 15 Feb 2017 04:45 648.30M 2269529.4 Intoxicated EU-Magtheridon
88 20 Dec 2016 04:46 833.51M 2904750.5 Vagrants US-Turalyon
89 07 Mar 2017 04:47 623.33M 2170758.1 Ewige Stille EU-Zirkel des Cenarius
90 24 Jan 2017 04:48 708.82M 2460461.5 Retro Raiders US-Bloodhoof
91 15 Jan 2017 04:48 1079.36M 3738479.8 Scotch and Soda US-Whisperwind
92 05 Jan 2017 04:49 961.75M 3319821.7 titans gone wild US-Exodar
93 15 Dec 2016 04:50 1170.65M 4036446.2 Linergy EU-Hyjal
94 12 Jan 2017 04:50 834.64M 2876172.3 Drachentanz EU-Blackhand
95 12 Jan 2017 04:50 834.64M 2876172.3 Drachentanz EU-Blackhand
96 05 Jan 2017 04:50 1017.76M 3505895.1 Кредо EU-Гордунни
97 09 Jan 2017 04:51 769.19M 2635463.0 Legenden des Mondes EU-Antonidas
98 20 Feb 2017 04:52 890.03M 3047887.7 Cool Runnings EU-Blackhand
99 03 Jan 2017 04:52 1320.09M 4513004.8 Grim Determination US-Earthen Ring
100 11 Jan 2017 04:53 650.49M 2219871.9 Pandæmonium EU-Die ewige Wacht

Please do not close the page with the ad you want to report.

I've posted a guide on how to report misbehaving ads on the forum. Please follow the instructions and help make the internet a safer place. Thanks for you time.